createdAt,value
2023-05-11T00:04:08.436Z,101025.31
2023-05-11T00:09:13.925Z,101019.31
2023-05-11T00:14:18.740Z,101021.81
2023-05-11T00:19:24.484Z,101022.66
2023-05-11T00:24:29.874Z,101023.47
2023-05-11T00:29:35.037Z,101021.19
2023-05-11T00:34:40.458Z,101021.16
2023-05-11T00:39:45.343Z,101026.09
2023-05-11T00:44:50.371Z,101026.25
2023-05-11T00:49:56.227Z,101034.06
2023-05-11T00:55:00.935Z,101030.94
2023-05-11T01:00:06.019Z,101020.09
2023-05-11T01:05:10.542Z,101014.47
2023-05-11T01:10:35.871Z,101015.81
2023-05-11T01:15:53.843Z,101005.53
2023-05-11T01:21:06.724Z,101000.88
2023-05-11T01:26:30.067Z,100997.88
2023-05-11T01:31:37.375Z,100997.38
2023-05-11T01:36:53.177Z,100992.53
2023-05-11T01:42:06.133Z,101020.47
2023-05-11T01:47:14.958Z,100981.00
2023-05-11T01:52:22.763Z,100984.28
2023-05-11T01:57:29.900Z,101004.19
2023-05-11T02:02:37.110Z,100964.25
2023-05-11T02:07:46.402Z,100961.13
2023-05-11T02:12:53.657Z,100957.81
2023-05-11T02:18:01.098Z,100946.59
2023-05-11T02:23:08.852Z,100933.72
2023-05-11T02:28:14.173Z,100927.44
2023-05-11T02:33:33.843Z,100914.53
2023-05-11T02:38:41.220Z,100911.50
2023-05-11T02:43:52.262Z,100914.31
2023-05-11T02:49:02.314Z,100886.25
2023-05-11T02:54:12.587Z,100882.78
2023-05-11T02:59:23.007Z,100868.50
2023-05-11T03:04:28.613Z,100862.97
2023-05-11T03:09:36.224Z,100850.38
2023-05-11T03:14:42.501Z,100850.00
2023-05-11T03:19:48.668Z,100839.78
2023-05-11T03:24:55.165Z,100824.09
2023-05-11T03:30:01.966Z,100815.53
2023-05-11T03:35:13.075Z,100834.13
2023-05-11T03:40:21.231Z,100803.47
2023-05-11T03:45:32.852Z,100809.22
2023-05-11T03:50:41.371Z,100797.38
2023-05-11T03:55:46.519Z,100791.31
2023-05-11T04:00:52.123Z,100790.63
2023-05-11T04:05:57.305Z,100779.97
2023-05-11T04:11:03.134Z,100782.81
2023-05-11T04:16:09.057Z,100773.47
2023-05-11T04:21:15.687Z,100763.03
2023-05-11T04:26:20.716Z,100759.31
2023-05-11T04:31:25.646Z,100731.75
2023-05-11T04:36:31.316Z,100721.53
2023-05-11T04:41:36.850Z,100711.28
2023-05-11T04:46:41.755Z,100705.34
2023-05-11T04:51:48.283Z,100700.47
2023-05-11T04:56:53.541Z,100689.88
2023-05-11T05:02:00.487Z,100689.63
2023-05-11T05:07:05.884Z,100671.72
2023-05-11T05:12:10.728Z,100664.16
2023-05-11T05:17:15.881Z,100656.09
2023-05-11T05:22:25.926Z,100639.25
2023-05-11T05:27:34.921Z,100646.31
2023-05-11T05:32:44.335Z,100632.41
2023-05-11T05:37:49.543Z,100631.03
2023-05-11T05:42:56.630Z,100626.44
2023-05-11T05:48:03.025Z,100624.81
2023-05-11T05:53:09.079Z,100616.88
2023-05-11T05:58:15.162Z,100608.75
2023-05-11T06:03:22.476Z,100596.31
2023-05-11T06:08:32.338Z,100588.69
2023-05-11T06:13:37.497Z,100578.63
2023-05-11T06:18:44.678Z,100579.69
2023-05-11T06:23:50.504Z,100575.22
2023-05-11T06:28:56.196Z,100573.53
2023-05-11T06:34:02.275Z,100573.88
2023-05-11T06:39:09.067Z,100567.91
2023-05-11T06:44:14.497Z,100563.19
2023-05-11T06:49:22.728Z,100570.88
2023-05-11T06:54:27.932Z,100567.44
2023-05-11T06:59:34.005Z,100581.38
2023-05-11T07:04:39.117Z,100568.25
2023-05-11T07:09:44.060Z,100561.50
2023-05-11T07:14:48.874Z,100544.81
2023-05-11T07:19:54.077Z,100543.09
2023-05-11T07:24:59.016Z,100537.19
2023-05-11T07:30:05.150Z,100532.13
2023-05-11T07:35:10.706Z,100532.22
2023-05-11T07:40:19.687Z,100527.38
2023-05-11T07:45:24.778Z,100525.88
2023-05-11T07:50:29.954Z,100523.34
2023-05-11T07:55:34.781Z,100528.94
2023-05-11T08:00:39.500Z,100516.81
2023-05-11T08:05:45.969Z,100498.66
2023-05-11T08:10:50.813Z,100491.56
2023-05-11T08:15:55.864Z,100500.78
2023-05-11T08:21:01.512Z,100488.78
2023-05-11T08:26:06.533Z,100482.53
2023-05-11T08:31:11.569Z,100476.66
2023-05-11T08:36:16.692Z,100475.44
2023-05-11T08:41:21.415Z,100483.97
2023-05-11T08:46:30.896Z,100479.13
2023-05-11T08:51:43.329Z,100479.81
2023-05-11T08:56:53.846Z,100482.31
2023-05-11T09:02:00.161Z,100508.97
2023-05-11T09:07:05.362Z,100500.53
2023-05-11T09:12:15.364Z,100522.06
2023-05-11T09:17:20.393Z,100501.59
2023-05-11T09:22:26.487Z,100504.38
2023-05-11T09:27:33.461Z,100506.19
2023-05-11T09:33:04.764Z,100492.25
2023-05-11T09:38:12.110Z,100481.44
2023-05-11T09:43:23.050Z,100485.72
2023-05-11T09:48:33.608Z,100497.91
2023-05-11T09:53:47.554Z,100506.94
2023-05-11T09:58:56.070Z,100500.88
2023-05-11T10:04:21.069Z,100515.19
2023-05-11T10:09:28.640Z,100509.66
2023-05-11T10:14:35.354Z,100518.28
2023-05-11T10:19:40.713Z,100504.72
2023-05-11T10:24:46.140Z,100492.88
2023-05-11T10:29:51.992Z,100504.72
2023-05-11T10:34:58.752Z,100490.91
2023-05-11T10:40:04.185Z,100523.50
2023-05-11T10:45:09.124Z,100501.28
2023-05-11T10:50:42.738Z,100505.53
2023-05-11T10:56:28.325Z,100505.44
2023-05-11T11:01:42.502Z,100526.56
2023-05-11T11:06:48.081Z,100527.69
2023-05-11T11:11:54.189Z,100526.06
2023-05-11T11:17:28.447Z,100526.59
2023-05-11T11:22:39.939Z,100523.34
2023-05-11T11:27:59.454Z,100555.59
2023-05-11T11:33:12.855Z,100520.91
2023-05-11T11:38:23.016Z,100521.16
2023-05-11T11:43:30.954Z,100534.88
2023-05-11T11:48:43.617Z,100546.91
2023-05-11T11:53:53.167Z,100549.63
2023-05-11T11:59:02.369Z,100551.25
2023-05-11T12:04:07.869Z,100557.94
2023-05-11T12:09:13.098Z,100552.78
2023-05-11T12:14:19.416Z,100552.53
2023-05-11T12:19:26.900Z,100552.47
2023-05-11T12:24:33.491Z,100555.16
2023-05-11T12:29:40.779Z,100562.31
2023-05-11T12:35:03.619Z,100566.59
2023-05-11T12:40:13.025Z,100567.31
2023-05-11T12:45:20.122Z,100570.53
2023-05-11T12:50:26.378Z,100575.38
2023-05-11T12:55:32.949Z,100587.25
2023-05-11T13:00:38.638Z,100583.81
2023-05-11T13:05:44.419Z,100580.38
2023-05-11T13:10:50.922Z,100588.50
2023-05-11T13:15:59.980Z,100591.69
2023-05-11T13:21:10.004Z,100584.88
2023-05-11T13:26:25.801Z,100576.69
2023-05-11T13:31:34.795Z,100592.03
2023-05-11T13:36:42.996Z,100585.47
2023-05-11T13:41:48.828Z,100600.53
2023-05-11T13:46:55.261Z,100570.41
2023-05-11T13:52:02.790Z,100567.81
2023-05-11T13:57:09.527Z,100549.88
2023-05-11T14:02:15.653Z,100562.91
2023-05-11T14:07:23.869Z,100565.44
2023-05-11T14:12:31.075Z,100568.50
2023-05-11T14:17:36.626Z,100559.25
2023-05-11T14:22:46.250Z,100562.53
2023-05-11T14:27:55.760Z,100586.06
2023-05-11T14:33:02.367Z,100576.59
2023-05-11T14:38:09.678Z,100546.06
2023-05-11T14:43:18.253Z,100542.47
2023-05-11T14:48:32.586Z,100527.28
2023-05-11T14:53:38.193Z,100525.84
2023-05-11T14:58:44.771Z,100507.75
2023-05-11T15:03:50.737Z,100527.59
2023-05-11T15:08:56.415Z,100500.84
2023-05-11T15:14:02.444Z,100507.06
2023-05-11T15:19:11.877Z,100503.19
2023-05-11T15:24:17.414Z,100513.13
2023-05-11T15:29:23.547Z,100518.13
2023-05-11T15:34:29.423Z,100529.47
2023-05-11T15:39:35.540Z,100525.81
2023-05-11T15:44:41.252Z,100518.78
2023-05-11T15:49:46.940Z,100525.84
2023-05-11T15:54:52.780Z,100534.94
2023-05-11T15:59:59.054Z,100520.78
2023-05-11T16:05:06.104Z,100498.75
2023-05-11T16:10:12.351Z,100495.50
2023-05-11T16:15:18.401Z,100490.38
2023-05-11T16:20:24.733Z,100477.03
2023-05-11T16:25:31.048Z,100468.00
2023-05-11T16:30:38.600Z,100487.41
2023-05-11T16:35:45.452Z,100500.59
2023-05-11T16:40:51.928Z,100493.44
2023-05-11T16:45:58.239Z,100479.44
2023-05-11T16:51:03.701Z,100473.03
2023-05-11T16:56:09.311Z,100455.78
2023-05-11T17:01:14.056Z,100433.78
2023-05-11T17:06:21.573Z,100432.13
2023-05-11T17:11:27.059Z,100419.19
2023-05-11T17:16:32.510Z,100421.06
2023-05-11T17:21:37.822Z,100422.09
2023-05-11T17:26:47.782Z,100447.19
2023-05-11T17:31:54.041Z,100420.66
2023-05-11T17:36:59.835Z,100408.16
2023-05-11T17:42:04.907Z,100421.50
2023-05-11T17:47:10.327Z,100402.34
2023-05-11T17:52:18.331Z,100402.78
2023-05-11T17:57:24.942Z,100411.19
2023-05-11T18:02:30.362Z,100410.56
2023-05-11T18:07:36.036Z,100392.91
2023-05-11T18:12:41.310Z,100374.41
2023-05-11T18:17:46.521Z,100377.28
2023-05-11T18:22:51.987Z,100372.94
2023-05-11T18:27:56.458Z,100372.78
2023-05-11T18:33:03.150Z,100374.78
2023-05-11T18:38:09.069Z,100357.34
2023-05-11T18:43:15.131Z,100359.41
2023-05-11T18:48:21.634Z,100346.47
2023-05-11T18:53:28.756Z,100358.16
2023-05-11T18:58:34.216Z,100346.84
2023-05-11T19:03:39.843Z,100350.78
2023-05-11T19:08:45.190Z,100363.69
2023-05-11T19:13:51.667Z,100350.75
2023-05-11T19:18:58.184Z,100342.53
2023-05-11T19:24:03.530Z,100345.59
2023-05-11T19:29:15.158Z,100343.13
2023-05-11T19:34:20.503Z,100334.94
2023-05-11T19:39:26.422Z,100339.22
2023-05-11T19:44:35.788Z,100338.59
2023-05-11T19:49:41.406Z,100343.72
2023-05-11T19:54:46.822Z,100330.97
2023-05-11T19:59:52.213Z,100333.44
2023-05-11T20:04:57.548Z,100324.81
2023-05-11T20:10:03.109Z,100312.50
2023-05-11T20:15:10.271Z,100316.34
2023-05-11T20:20:15.756Z,100322.84
2023-05-11T20:25:21.610Z,100315.66
2023-05-11T20:30:27.122Z,100311.94
2023-05-11T20:35:34.210Z,100303.72
2023-05-11T20:40:39.949Z,100300.22
2023-05-11T20:45:45.234Z,100303.03
2023-05-11T20:50:55.478Z,100324.94
2023-05-11T20:56:02.459Z,100308.72
2023-05-11T21:01:07.938Z,100313.19
2023-05-11T21:06:13.117Z,100301.66
2023-05-11T21:11:18.213Z,100305.78
2023-05-11T21:16:22.963Z,100310.09
2023-05-11T21:21:28.010Z,100310.75
2023-05-11T21:26:33.077Z,100326.06
2023-05-11T21:31:38.144Z,100320.94
2023-05-11T21:36:43.389Z,100320.13
2023-05-11T21:41:49.125Z,100330.97
2023-05-11T21:46:54.263Z,100336.06
2023-05-11T21:51:59.261Z,100340.19
2023-05-11T21:57:05.125Z,100371.34
2023-05-11T22:02:10.098Z,100344.75
2023-05-11T22:07:15.308Z,100372.47
2023-05-11T22:12:20.083Z,100343.59
2023-05-11T22:17:24.983Z,100345.03
2023-05-11T22:22:30.214Z,100355.09
2023-05-11T22:27:36.465Z,100358.00
2023-05-11T22:32:41.544Z,100367.03
2023-05-11T22:37:46.518Z,100355.97
2023-05-11T22:42:51.715Z,100360.09
2023-05-11T22:47:56.737Z,100365.47
2023-05-11T22:53:01.952Z,100363.03
2023-05-11T22:58:06.920Z,100369.22
2023-05-11T23:03:13.004Z,100352.00
2023-05-11T23:08:18.062Z,100350.06
2023-05-11T23:13:23.772Z,100329.78
2023-05-11T23:18:29.627Z,100341.28
2023-05-11T23:23:34.466Z,100348.09
2023-05-11T23:28:39.325Z,100357.97
2023-05-11T23:33:44.366Z,100345.88
2023-05-11T23:38:49.464Z,100339.13
2023-05-11T23:43:54.095Z,100341.13
2023-05-11T23:48:59.020Z,100340.47
2023-05-11T23:54:03.944Z,100340.84
2023-05-11T23:59:08.749Z,100335.03
